createdAt,value
2022-11-27T00:01:32.084Z,2.00
2022-11-27T00:03:59.003Z,3.43
2022-11-27T00:06:27.667Z,2.80
2022-11-27T00:08:56.662Z,2.07
2022-11-27T00:11:25.239Z,2.70
2022-11-27T00:13:52.684Z,2.93
2022-11-27T00:16:21.096Z,3.10
2022-11-27T00:18:47.777Z,3.17
2022-11-27T00:21:22.376Z,1.70
2022-11-27T00:23:49.544Z,5.53
2022-11-27T00:26:16.177Z,3.40
2022-11-27T00:28:43.070Z,3.13
2022-11-27T00:31:15.734Z,2.97
2022-11-27T00:33:42.436Z,2.63
2022-11-27T00:36:10.119Z,3.93
2022-11-27T00:38:39.119Z,1.47
2022-11-27T00:41:15.375Z,4.17
2022-11-27T00:46:08.159Z,2.07
2022-11-27T00:48:35.252Z,3.83
2022-11-27T00:51:04.889Z,2.67
2022-11-27T00:53:32.064Z,3.87
2022-11-27T00:55:59.244Z,2.00
2022-11-27T00:58:27.124Z,1.83
2022-11-27T01:01:02.634Z,4.53
2022-11-27T01:03:30.298Z,2.83
2022-11-27T01:05:57.119Z,2.07
2022-11-27T01:08:23.794Z,2.97
2022-11-27T01:10:54.954Z,2.27
2022-11-27T01:13:30.514Z,3.07
2022-11-27T01:16:07.018Z,1.73
2022-11-27T01:18:34.868Z,2.30
2022-11-27T01:21:02.458Z,3.83
2022-11-27T01:23:29.425Z,2.17
2022-11-27T01:25:56.087Z,3.10
2022-11-27T01:28:24.099Z,2.50
2022-11-27T01:30:51.242Z,3.30
2022-11-27T01:33:18.910Z,3.90
2022-11-27T01:35:59.827Z,2.03
2022-11-27T01:38:27.443Z,3.27
2022-11-27T01:41:08.795Z,2.10
2022-11-27T01:43:36.672Z,1.60
2022-11-27T01:46:04.341Z,2.90
2022-11-27T01:48:31.971Z,2.47
2022-11-27T01:50:58.602Z,2.40
2022-11-27T01:53:25.632Z,2.00
2022-11-27T01:55:58.408Z,3.40
2022-11-27T01:58:28.134Z,3.43
2022-11-27T02:00:54.899Z,1.67
2022-11-27T02:03:22.420Z,2.53
2022-11-27T02:05:49.059Z,1.50
2022-11-27T02:08:16.894Z,4.10
2022-11-27T02:10:54.353Z,2.87
2022-11-27T02:13:35.802Z,2.53
2022-11-27T02:16:31.480Z,3.13
2022-11-27T02:19:00.307Z,2.70
2022-11-27T02:22:00.421Z,2.43
2022-11-27T02:24:50.416Z,2.73
2022-11-27T02:27:52.432Z,3.30
2022-11-27T02:30:19.387Z,1.80
2022-11-27T02:32:56.926Z,1.77
2022-11-27T02:35:28.231Z,2.17
2022-11-27T02:38:02.471Z,3.83
2022-11-27T02:40:39.897Z,2.70
2022-11-27T02:43:11.749Z,3.00
2022-11-27T02:45:43.267Z,2.70
2022-11-27T02:48:12.111Z,2.60
2022-11-27T02:50:41.429Z,3.80
2022-11-27T02:53:18.737Z,1.50
2022-11-27T02:55:46.543Z,2.90
2022-11-27T02:58:16.542Z,1.50
2022-11-27T03:00:45.002Z,1.87
2022-11-27T03:03:16.916Z,1.30
2022-11-27T03:05:47.369Z,3.83
2022-11-27T03:08:32.897Z,1.40
2022-11-27T03:11:02.448Z,2.60
2022-11-27T03:13:31.815Z,3.10
2022-11-27T03:16:21.879Z,2.67
2022-11-27T03:19:00.368Z,2.83
2022-11-27T03:21:38.723Z,4.00
2022-11-27T03:24:07.193Z,1.37
2022-11-27T03:26:34.063Z,2.20
2022-11-27T03:29:02.733Z,2.70
2022-11-27T03:31:30.051Z,2.43
2022-11-27T03:33:57.295Z,1.43
2022-11-27T03:36:23.965Z,2.63
2022-11-27T03:38:53.006Z,1.80
2022-11-27T03:41:38.369Z,2.07
2022-11-27T03:44:25.661Z,3.40
2022-11-27T03:47:16.443Z,2.07
2022-11-27T03:50:09.255Z,1.43
2022-11-27T03:52:45.096Z,1.57
2022-11-27T03:55:28.783Z,2.10
2022-11-27T03:58:03.455Z,2.20
2022-11-27T04:00:34.711Z,2.03
2022-11-27T04:03:03.409Z,1.73
2022-11-27T04:05:30.007Z,3.00
2022-11-27T04:07:56.667Z,1.53
2022-11-27T04:10:23.272Z,1.53
2022-11-27T04:12:50.361Z,3.20
2022-11-27T04:15:16.951Z,1.40
2022-11-27T04:17:43.473Z,2.00
2022-11-27T04:20:13.207Z,1.23
2022-11-27T04:22:40.148Z,3.03
2022-11-27T04:25:07.517Z,1.63
2022-11-27T04:27:34.131Z,1.63
2022-11-27T04:30:00.674Z,1.10
2022-11-27T04:32:27.252Z,1.73
2022-11-27T04:34:53.949Z,1.20
2022-11-27T04:37:20.468Z,1.97
2022-11-27T04:39:47.048Z,2.97
2022-11-27T04:42:13.655Z,1.73
2022-11-27T04:44:40.448Z,2.03
2022-11-27T04:47:07.235Z,1.40
2022-11-27T04:49:33.943Z,2.30
2022-11-27T04:52:00.488Z,2.87
2022-11-27T04:54:27.431Z,3.23
2022-11-27T04:56:53.993Z,2.07
2022-11-27T04:59:20.633Z,4.40
2022-11-27T05:01:47.209Z,1.37
2022-11-27T05:04:13.909Z,1.83
2022-11-27T05:06:40.483Z,2.07
2022-11-27T05:09:07.237Z,2.33
2022-11-27T05:11:34.145Z,3.10
2022-11-27T05:14:16.648Z,1.63
2022-11-27T05:16:45.669Z,2.67
2022-11-27T05:19:12.839Z,1.77
2022-11-27T05:21:39.703Z,1.63
2022-11-27T05:24:06.884Z,1.37
2022-11-27T05:26:34.016Z,2.30
2022-11-27T05:29:00.875Z,1.90
2022-11-27T05:31:27.806Z,1.63
2022-11-27T05:33:54.504Z,1.83
2022-11-27T05:36:21.143Z,1.30
2022-11-27T05:38:47.721Z,1.17
2022-11-27T05:41:14.341Z,0.90
2022-11-27T05:43:41.825Z,5.07
2022-11-27T05:46:10.298Z,2.27
2022-11-27T05:48:37.423Z,1.67
2022-11-27T05:51:04.863Z,13.83
2022-11-27T05:53:31.474Z,2.00
2022-11-27T05:56:07.207Z,1.77
2022-11-27T05:58:34.599Z,2.07
2022-11-27T06:01:01.536Z,1.40
2022-11-27T06:03:28.429Z,1.80
2022-11-27T06:05:55.118Z,3.53
2022-11-27T06:08:21.887Z,2.57
2022-11-27T06:10:48.992Z,2.60
2022-11-27T06:13:15.676Z,1.40
2022-11-27T06:15:42.558Z,1.03
2022-11-27T06:18:10.953Z,1.90
2022-11-27T06:20:43.344Z,1.63
2022-11-27T06:23:10.355Z,0.93
2022-11-27T06:25:36.871Z,1.40
2022-11-27T06:28:03.518Z,1.20
2022-11-27T06:30:30.101Z,2.17
2022-11-27T06:32:56.632Z,10.30
2022-11-27T06:35:24.099Z,8.23
2022-11-27T06:37:50.634Z,0.70
2022-11-27T06:40:17.208Z,1.00
2022-11-27T06:42:43.870Z,2.37
2022-11-27T06:45:11.571Z,1.77
2022-11-27T06:47:38.144Z,3.50
2022-11-27T06:50:05.356Z,2.20
2022-11-27T06:52:34.668Z,4.20
2022-11-27T06:55:05.580Z,1.20
2022-11-27T06:57:32.163Z,1.00
2022-11-27T06:59:58.702Z,1.77
2022-11-27T07:02:25.329Z,4.87
2022-11-27T07:04:51.910Z,1.87
2022-11-27T07:07:18.635Z,7.83
2022-11-27T07:09:45.328Z,1.87
2022-11-27T07:12:12.001Z,1.40
2022-11-27T07:14:38.884Z,2.30
2022-11-27T07:17:05.751Z,1.40
2022-11-27T07:19:32.350Z,1.13
2022-11-27T07:21:58.919Z,2.20
2022-11-27T07:24:25.472Z,2.10
2022-11-27T07:26:52.019Z,1.47
2022-11-27T07:29:18.615Z,2.60
2022-11-27T07:31:45.255Z,2.40
2022-11-27T07:34:17.112Z,1.77
2022-11-27T07:36:47.733Z,2.20
2022-11-27T07:39:14.271Z,3.27
2022-11-27T07:41:40.878Z,1.17
2022-11-27T07:44:07.432Z,5.53
2022-11-27T07:46:34.043Z,1.43
2022-11-27T07:49:00.889Z,2.33
2022-11-27T07:51:27.937Z,3.47
2022-11-27T07:53:54.533Z,2.87
2022-11-27T07:56:21.679Z,5.60
2022-11-27T07:58:48.801Z,10.50
2022-11-27T08:01:17.538Z,12.57
2022-11-27T08:03:44.885Z,10.97
2022-11-27T08:06:22.801Z,8.57
2022-11-27T08:08:49.776Z,11.23
2022-11-27T08:11:32.671Z,20.13
2022-11-27T08:14:04.732Z,9.73
2022-11-27T08:16:33.158Z,11.63
2022-11-27T08:18:59.845Z,14.63
2022-11-27T08:21:27.522Z,17.07
2022-11-27T08:23:54.740Z,16.03
2022-11-27T08:26:21.346Z,11.40
2022-11-27T08:28:48.089Z,15.87
2022-11-27T08:31:15.199Z,12.27
2022-11-27T08:33:41.879Z,12.83
2022-11-27T08:36:12.539Z,13.03
2022-11-27T08:38:41.639Z,15.07
2022-11-27T08:41:09.214Z,10.13
2022-11-27T08:43:36.701Z,12.13
2022-11-27T08:46:05.708Z,11.90
2022-11-27T08:48:32.402Z,14.13
2022-11-27T08:50:58.997Z,13.10
2022-11-27T08:53:26.275Z,11.03
2022-11-27T08:55:52.807Z,10.10
2022-11-27T08:58:19.331Z,11.73
2022-11-27T09:00:45.908Z,12.87
2022-11-27T09:03:12.543Z,9.17
2022-11-27T09:05:44.166Z,11.23
2022-11-27T09:08:13.410Z,13.13
2022-11-27T09:10:39.947Z,9.30
2022-11-27T09:13:06.489Z,8.13
2022-11-27T09:15:33.045Z,8.33
2022-11-27T09:17:59.569Z,6.83
2022-11-27T09:20:26.124Z,6.17
2022-11-27T09:22:52.689Z,9.60
2022-11-27T09:25:19.225Z,7.70
2022-11-27T09:27:45.784Z,12.40
2022-11-27T09:30:12.921Z,11.70
2022-11-27T09:32:39.455Z,11.73
2022-11-27T09:35:06.301Z,12.97
2022-11-27T09:37:33.192Z,17.90
2022-11-27T09:39:59.744Z,11.20
2022-11-27T09:42:47.143Z,10.73
2022-11-27T09:45:17.234Z,8.13
2022-11-27T09:47:54.286Z,6.70
2022-11-27T09:50:28.484Z,5.93
2022-11-27T09:53:01.139Z,9.97
2022-11-27T09:55:44.295Z,4.40
2022-11-27T09:58:18.458Z,9.23
2022-11-27T10:00:46.439Z,6.30
2022-11-27T10:03:20.012Z,3.83
2022-11-27T10:05:55.785Z,10.13
2022-11-27T10:08:41.252Z,8.83
2022-11-27T10:11:36.267Z,4.33
2022-11-27T10:14:07.841Z,10.30
2022-11-27T10:16:53.839Z,11.70
2022-11-27T10:19:45.280Z,8.57
2022-11-27T10:22:39.289Z,9.47
2022-11-27T10:25:19.066Z,10.53
2022-11-27T10:28:28.013Z,10.20
2022-11-27T10:31:19.159Z,6.17
2022-11-27T10:33:54.555Z,7.10
2022-11-27T10:36:36.901Z,12.90
2022-11-27T10:39:06.541Z,14.13
2022-11-27T10:41:53.405Z,8.63
2022-11-27T10:44:39.811Z,11.47
2022-11-27T10:47:10.911Z,10.70
2022-11-27T10:49:40.970Z,12.20
2022-11-27T10:52:16.435Z,7.07
2022-11-27T10:54:45.476Z,10.10
2022-11-27T10:57:22.716Z,5.87
2022-11-27T11:00:06.146Z,8.30
2022-11-27T11:02:35.203Z,10.93
2022-11-27T11:05:40.972Z,9.90
2022-11-27T11:08:19.596Z,9.20
2022-11-27T11:10:58.480Z,10.13
2022-11-27T11:13:27.772Z,4.13
2022-11-27T11:16:06.630Z,6.97
2022-11-27T11:18:42.487Z,6.23
2022-11-27T11:21:25.915Z,5.27
2022-11-27T11:24:01.607Z,10.77
2022-11-27T11:26:33.783Z,8.30
2022-11-27T11:29:04.881Z,17.57
2022-11-27T11:31:39.972Z,22.00
2022-11-27T11:34:25.192Z,15.77
2022-11-27T11:37:03.930Z,19.80
2022-11-27T11:39:33.928Z,22.70
2022-11-27T11:42:00.671Z,44.50
2022-11-27T11:44:35.803Z,21.13
2022-11-27T11:47:02.372Z,24.80
2022-11-27T11:49:31.432Z,23.80
2022-11-27T11:52:26.141Z,24.90
2022-11-27T11:54:58.339Z,32.03
2022-11-27T11:57:43.196Z,29.80
2022-11-27T12:00:12.794Z,31.30
2022-11-27T12:03:10.206Z,28.83
2022-11-27T12:05:41.386Z,26.30
2022-11-27T12:08:45.587Z,20.60
2022-11-27T12:11:40.778Z,21.40
2022-11-27T12:14:19.896Z,22.33
2022-11-27T12:17:19.609Z,28.53
2022-11-27T12:20:05.262Z,14.37
2022-11-27T12:22:38.058Z,25.43
2022-11-27T12:25:19.741Z,24.97
2022-11-27T12:28:07.709Z,24.50
2022-11-27T12:31:03.054Z,19.27
2022-11-27T12:33:56.830Z,24.93
2022-11-27T12:36:59.085Z,16.20
2022-11-27T12:39:47.710Z,13.77
2022-11-27T12:42:21.959Z,26.07
2022-11-27T12:47:56.949Z,13.23
2022-11-27T12:50:41.759Z,19.30
2022-11-27T12:53:35.896Z,14.20
2022-11-27T12:56:37.957Z,22.10
2022-11-27T12:59:23.463Z,16.87
2022-11-27T13:02:01.410Z,16.10
2022-11-27T13:04:40.309Z,17.03
2022-11-27T13:07:12.177Z,17.50
2022-11-27T13:10:05.886Z,18.10
2022-11-27T13:12:43.274Z,9.80
2022-11-27T13:15:32.994Z,13.57
2022-11-27T13:18:23.749Z,12.17
2022-11-27T13:20:52.710Z,22.67
2022-11-27T13:23:23.476Z,16.53
2022-11-27T13:25:54.527Z,11.07
2022-11-27T13:28:52.100Z,13.40
2022-11-27T13:31:28.557Z,18.13
2022-11-27T13:34:07.664Z,20.47
2022-11-27T13:36:44.710Z,21.23
2022-11-27T13:39:44.369Z,44.13
2022-11-27T13:42:23.192Z,22.77
2022-11-27T13:45:04.004Z,18.73
2022-11-27T13:47:38.075Z,11.87
2022-11-27T13:50:12.276Z,14.70
2022-11-27T13:52:57.023Z,12.40
2022-11-27T13:55:29.930Z,13.83
2022-11-27T13:57:59.410Z,14.70
2022-11-27T14:00:37.582Z,13.70
2022-11-27T14:03:05.089Z,14.83
2022-11-27T14:05:43.539Z,15.13
2022-11-27T14:08:30.020Z,20.40
2022-11-27T14:11:04.691Z,14.03
2022-11-27T14:13:42.020Z,13.00
2022-11-27T14:16:35.572Z,14.90
2022-11-27T14:19:23.627Z,22.40
2022-11-27T14:21:50.329Z,17.80
2022-11-27T14:24:40.866Z,20.80
2022-11-27T14:27:20.436Z,37.90
2022-11-27T14:29:47.675Z,34.80
2022-11-27T14:32:15.894Z,40.73
2022-11-27T14:34:43.404Z,40.93
2022-11-27T14:37:48.159Z,34.17
2022-11-27T14:40:27.839Z,49.63
2022-11-27T14:42:54.437Z,53.60
2022-11-27T14:45:22.425Z,61.77
2022-11-27T14:47:52.449Z,53.23
2022-11-27T14:50:21.293Z,45.20
2022-11-27T14:52:54.492Z,66.60
2022-11-27T14:55:22.151Z,59.70
2022-11-27T14:57:50.031Z,68.47
2022-11-27T15:00:26.939Z,69.83
2022-11-27T15:02:54.314Z,60.93
2022-11-27T15:05:27.037Z,63.00
2022-11-27T15:07:57.496Z,51.23
2022-11-27T15:10:31.009Z,59.57
2022-11-27T15:12:59.444Z,54.27
2022-11-27T15:15:28.445Z,54.40
2022-11-27T15:17:58.869Z,55.03
2022-11-27T15:20:40.921Z,54.40
2022-11-27T15:23:24.709Z,29.00
2022-11-27T15:26:00.449Z,14.40
2022-11-27T15:28:28.582Z,9.43
2022-11-27T15:30:56.532Z,8.53
2022-11-27T15:33:31.720Z,14.03
2022-11-27T15:36:19.992Z,14.27
2022-11-27T15:38:47.517Z,11.30
2022-11-27T15:41:25.974Z,11.40
2022-11-27T15:43:54.066Z,12.37
2022-11-27T15:46:25.148Z,11.10
2022-11-27T15:48:52.075Z,12.30
2022-11-27T15:51:18.799Z,9.67
2022-11-27T15:53:45.410Z,9.00
2022-11-27T15:56:12.007Z,9.17
2022-11-27T15:58:38.583Z,9.80
2022-11-27T16:01:06.492Z,6.53
2022-11-27T16:03:33.098Z,11.53
2022-11-27T16:06:07.373Z,16.87
2022-11-27T16:08:33.977Z,7.47
2022-11-27T16:11:02.882Z,8.87
2022-11-27T16:13:29.847Z,8.57
2022-11-27T16:16:01.465Z,5.97
2022-11-27T16:18:28.180Z,9.00
2022-11-27T16:20:54.734Z,6.40
2022-11-27T16:23:21.267Z,9.53
2022-11-27T16:25:47.912Z,7.53
2022-11-27T16:28:14.449Z,9.60
2022-11-27T16:30:41.024Z,7.70
2022-11-27T16:33:07.551Z,7.17
2022-11-27T16:35:35.739Z,6.40
2022-11-27T16:38:02.388Z,7.80
2022-11-27T16:40:29.108Z,8.20
2022-11-27T16:42:55.749Z,7.60
2022-11-27T16:45:22.299Z,7.97
2022-11-27T16:47:49.024Z,6.20
2022-11-27T16:50:15.608Z,6.50
2022-11-27T16:52:42.213Z,6.23
2022-11-27T16:55:09.442Z,4.77
2022-11-27T16:57:35.998Z,6.20
2022-11-27T17:00:02.759Z,5.20
2022-11-27T17:02:29.370Z,5.80
2022-11-27T17:04:55.961Z,4.93
2022-11-27T17:07:22.586Z,7.60
2022-11-27T17:09:49.141Z,6.80
2022-11-27T17:12:16.396Z,8.13
2022-11-27T17:14:43.906Z,10.87
2022-11-27T17:17:10.479Z,4.93
2022-11-27T17:19:36.992Z,8.73
2022-11-27T17:22:03.997Z,4.43
2022-11-27T17:24:30.585Z,5.33
2022-11-27T17:26:57.188Z,5.27
2022-11-27T17:29:23.776Z,5.50
2022-11-27T17:31:51.064Z,3.67
2022-11-27T17:34:18.208Z,5.20
2022-11-27T17:36:45.303Z,7.13
2022-11-27T17:39:13.694Z,3.10
2022-11-27T17:41:41.304Z,3.90
2022-11-27T17:44:08.081Z,4.47
2022-11-27T17:46:36.151Z,5.13
2022-11-27T17:49:04.901Z,4.77
2022-11-27T17:51:32.989Z,4.40
2022-11-27T17:54:01.221Z,3.60
2022-11-27T17:56:29.087Z,4.63
2022-11-27T17:58:55.622Z,3.60
2022-11-27T18:01:24.537Z,4.17
2022-11-27T18:03:53.864Z,3.83
2022-11-27T18:06:22.774Z,4.90
2022-11-27T18:08:49.850Z,3.93
2022-11-27T18:11:22.404Z,3.77
2022-11-27T18:13:50.034Z,4.80
2022-11-27T18:16:28.957Z,2.90
2022-11-27T18:18:57.387Z,4.27
2022-11-27T18:21:26.945Z,4.60
2022-11-27T18:24:22.111Z,2.30
2022-11-27T18:29:27.480Z,3.43
2022-11-27T18:31:54.104Z,2.40
2022-11-27T18:34:20.753Z,4.03
2022-11-27T18:36:47.359Z,3.90
2022-11-27T18:39:13.926Z,2.80
2022-11-27T18:41:40.813Z,2.03
2022-11-27T18:44:07.503Z,3.10
2022-11-27T18:46:34.159Z,3.00
2022-11-27T18:49:00.822Z,3.43
2022-11-27T18:51:27.461Z,2.73
2022-11-27T18:53:54.589Z,2.67
2022-11-27T18:56:24.004Z,2.77
2022-11-27T18:58:50.879Z,2.40
2022-11-27T19:01:23.377Z,3.70
2022-11-27T19:03:50.518Z,3.63
2022-11-27T19:06:18.942Z,3.17
2022-11-27T19:08:45.979Z,2.13
2022-11-27T19:11:15.173Z,3.27
2022-11-27T19:13:43.241Z,3.90
2022-11-27T19:16:16.423Z,4.53
2022-11-27T19:18:43.350Z,3.67
2022-11-27T19:21:22.125Z,6.10
2022-11-27T19:23:49.548Z,4.03
2022-11-27T19:26:18.634Z,3.30
2022-11-27T19:28:49.116Z,3.33
2022-11-27T19:31:16.307Z,5.40
2022-11-27T19:33:43.610Z,3.33
2022-11-27T19:36:12.852Z,5.50
2022-11-27T19:38:41.496Z,4.73
2022-11-27T19:41:16.438Z,4.00
2022-11-27T19:43:43.573Z,3.80
2022-11-27T19:46:21.581Z,2.37
2022-11-27T19:48:48.600Z,3.37
2022-11-27T19:51:15.391Z,6.33
2022-11-27T19:53:42.741Z,4.00
2022-11-27T19:56:09.945Z,4.10
2022-11-27T19:58:36.975Z,3.20
2022-11-27T20:01:08.454Z,3.53
2022-11-27T20:03:35.518Z,4.77
2022-11-27T20:06:07.910Z,2.63
2022-11-27T20:08:35.181Z,3.03
2022-11-27T20:11:02.417Z,3.70
2022-11-27T20:13:28.974Z,2.60
2022-11-27T20:15:55.529Z,2.23
2022-11-27T20:18:22.174Z,3.27
2022-11-27T20:20:49.101Z,3.27
2022-11-27T20:23:15.737Z,2.50
2022-11-27T20:25:42.793Z,7.83
2022-11-27T20:28:10.157Z,2.97
2022-11-27T20:30:40.812Z,3.73
2022-11-27T20:33:07.868Z,3.37
2022-11-27T20:35:34.643Z,2.70
2022-11-27T20:38:01.164Z,2.03
2022-11-27T20:40:28.333Z,3.00
2022-11-27T20:42:54.939Z,2.50
2022-11-27T20:45:21.484Z,2.97
2022-11-27T20:47:48.065Z,3.00
2022-11-27T20:50:14.668Z,2.77
2022-11-27T20:52:41.217Z,5.53
2022-11-27T20:55:08.418Z,2.70
2022-11-27T20:57:35.065Z,2.30
2022-11-27T21:00:01.665Z,3.03
2022-11-27T21:02:28.361Z,4.03
2022-11-27T21:04:54.969Z,2.50
2022-11-27T21:07:21.664Z,2.53
2022-11-27T21:09:48.279Z,2.57
2022-11-27T21:12:15.452Z,4.97
2022-11-27T21:14:44.268Z,4.77
2022-11-27T21:17:10.875Z,3.03
2022-11-27T21:19:38.615Z,2.63
2022-11-27T21:22:05.202Z,2.43
2022-11-27T21:24:31.804Z,4.10
2022-11-27T21:26:58.434Z,2.43
2022-11-27T21:29:27.619Z,3.80
2022-11-27T21:31:55.191Z,6.40
2022-11-27T21:34:21.948Z,2.90
2022-11-27T21:36:48.784Z,2.50
2022-11-27T21:39:22.302Z,2.73
2022-11-27T21:41:50.900Z,2.17
2022-11-27T21:44:17.968Z,3.00
2022-11-27T21:46:46.405Z,2.10
2022-11-27T21:49:15.137Z,3.57
2022-11-27T21:51:41.790Z,3.10
2022-11-27T21:54:11.491Z,2.57
2022-11-27T21:56:40.103Z,2.60
2022-11-27T21:59:13.411Z,3.77
2022-11-27T22:01:40.328Z,2.13
2022-11-27T22:04:06.958Z,3.03
2022-11-27T22:06:39.169Z,2.67
2022-11-27T22:09:10.493Z,2.53
2022-11-27T22:11:40.079Z,2.20
2022-11-27T22:14:07.851Z,2.80
2022-11-27T22:16:42.908Z,2.47
2022-11-27T22:19:11.702Z,6.03
2022-11-27T22:21:38.324Z,5.10
2022-11-27T22:24:05.099Z,3.30
2022-11-27T22:26:31.634Z,4.33
2022-11-27T22:28:58.571Z,5.27
2022-11-27T22:31:33.752Z,2.80
2022-11-27T22:34:01.456Z,2.43
2022-11-27T22:36:32.708Z,2.20
2022-11-27T22:39:01.972Z,1.77
2022-11-27T22:41:30.438Z,1.93
2022-11-27T22:43:58.711Z,2.27
2022-11-27T22:46:27.997Z,2.67
2022-11-27T22:48:59.152Z,2.13
2022-11-27T22:51:27.228Z,2.90
2022-11-27T22:53:54.124Z,3.93
2022-11-27T22:56:21.214Z,2.13
2022-11-27T22:58:48.060Z,2.97
2022-11-27T23:01:22.762Z,2.50
2022-11-27T23:03:49.627Z,4.63
2022-11-27T23:06:18.443Z,3.50
2022-11-27T23:08:47.184Z,4.93
2022-11-27T23:11:16.172Z,3.40
2022-11-27T23:13:49.282Z,3.00
2022-11-27T23:16:17.059Z,3.23
2022-11-27T23:18:43.996Z,2.00
2022-11-27T23:21:14.708Z,2.93
2022-11-27T23:23:41.912Z,2.50
2022-11-27T23:26:17.402Z,2.90
2022-11-27T23:28:45.079Z,2.73
2022-11-27T23:31:29.481Z,2.70
2022-11-27T23:33:56.831Z,2.23
2022-11-27T23:36:23.505Z,1.90
2022-11-27T23:38:50.045Z,3.30
2022-11-27T23:41:23.054Z,3.17
2022-11-27T23:43:50.325Z,8.30
2022-11-27T23:46:19.360Z,1.33
2022-11-27T23:48:46.156Z,5.13
2022-11-27T23:51:15.768Z,2.80
2022-11-27T23:53:42.459Z,4.43
2022-11-27T23:56:12.317Z,1.87
2022-11-27T23:58:43.672Z,3.13
